John Quigg — WDB9828 — position and weather

sailwx.info

Track history (hours):
 
Tides and Currents Weather Stations Pressure Air Temp Water Temp Dewpoint Dewpoint Depression Visibility Wind Speed Wind Dir Waves Ship Positions

John Quigg

Owner: Harley Marine Services, Inc, Seattle, WA. More information available from US FCC via Universal Licensing System and Coast Guard Vessel Documentation Center.

Last reported at 2015-May-25 03:07 UTC. Time now 2015-May-25 05:31 UTC.
Position N 33°44' W 118°15'.

MMSI: 365934954.

Date/timePositionNaut miles runAvg speedWind from/ knotsBaromVisibWave heightAir tempDewpointWater temp
2015-May-25 03:07N 33°44' W 118°15'2 1.9
2015-May-25 02:13N 33°46' W 118°16'4 0.8
2015-May-24 21:32N 33°44' W 118°12'3 0.4
2015-May-24 14:07N 33°46' W 118°13'2 0.2
2015-May-24 03:07N 33°44' W 118°12'0 0.3
2015-May-24 02:32N 33°44' W 118°12'2 1.7
2015-May-24 01:32N 33°46' W 118°13'1 0.6
2015-May-24 00:33N 33°45' W 118°13'0 0.3
2015-May-23 23:32N 33°45' W 118°13'0 0.0
2015-May-23 22:33N 33°45' W 118°13'0 0.0
2015-May-23 21:33N 33°45' W 118°13'1 1.2
2015-May-23 20:34N 33°46' W 118°13'0 0.2
2015-May-23 19:34N 33°46' W 118°13'3 0.8
2015-May-23 16:16N 33°45' W 118°16'3 1.0
2015-May-23 13:33N 33°45' W 118°13'2 1.5
2015-May-23 12:21N 33°44' W 118°11'3 0.4
2015-May-23 06:27N 33°45' W 118°14'2 2.1
2015-May-23 05:33N 33°44' W 118°12'2 0.4
2015-May-23 00:34N 33°46' W 118°13'0 0.1
2015-May-22 23:33N 33°46' W 118°13'2 1.7
2015-May-22 22:33N 33°44' W 118°13'1 0.8
2015-May-22 21:31N 33°44' W 118°12'3 0.4
2015-May-22 14:22N 33°46' W 118°13'1 0.8
2015-May-22 12:30N 33°45' W 118°13'0 0.1
2015-May-22 10:29N 33°45' W 118°13'0 0.0
2015-May-22 01:31N 33°45' W 118°13'3 1.0
2015-May-21 22:34N 33°46' W 118°17'2 0.4
2015-May-21 16:16N 33°44' W 118°16'3 3.8
2015-May-21 15:34N 33°46' W 118°14'1 0.5
2015-May-21 14:23N 33°46' W 118°13'1 0.1
2015-May-21 10:05N 33°46' W 118°14'2 0.1
2015-May-20 22:05N 33°45' W 118°12'2 0.9
2015-May-20 19:31N 33°44' W 118°10'4 3.6
2015-May-20 18:32N 33°46' W 118°13'1 0.2
2015-May-20 13:33N 33°46' W 118°14'1 0.1
2015-May-20 03:32N 33°45' W 118°14'1 0.4
2015-May-20 01:33N 33°44' W 118°14'0 0.2
2015-May-19 23:19N 33°44' W 118°13'1 0.6
2015-May-19 22:31N 33°44' W 118°13'3 1.3
2015-May-19 20:11N 33°45' W 118°16'3 0.2
2015-May-18 23:27N 33°44' W 118°12'0 0.5
2015-May-18 22:33N 33°44' W 118°12'6 5.3
2015-May-18 21:29N 33°44' W 118°06'2 2.2
2015-May-18 20:31N 33°44' W 118°08'6 0.5
2015-May-18 06:28N 33°46' W 118°15'3 1.3
2015-May-18 04:33N 33°45' W 118°12'1 0.4
2015-May-18 01:21N 33°44' W 118°13'3 0.7
2015-May-17 21:32N 33°45' W 118°16'1 0.1
2015-May-17 15:25N 33°45' W 118°16'4 1.1
2015-May-17 11:30N 33°44' W 118°11'2 0.4
2015-May-17 07:29N 33°45' W 118°12'0 0.1
2015-May-16 23:26N 33°45' W 118°13'2 1.7
2015-May-16 22:33N 33°44' W 118°13'1 0.9
2015-May-16 21:31N 33°45' W 118°13'1 0.8
2015-May-16 20:33N 33°45' W 118°13'1 0.4
2015-May-16 16:27N 33°44' W 118°14'1 1.2
2015-May-16 15:33N 33°45' W 118°13'2 2.1
2015-May-16 14:32N 33°46' W 118°15'1 0.3
2015-May-16 10:33N 33°46' W 118°14'1 0.6
2015-May-16 08:15N 33°45' W 118°13'0 0.0
2015-May-16 02:27N 33°45' W 118°13'2 0.7
2015-May-15 23:14N 33°44' W 118°15'3 4.1
2015-May-15 22:34N 33°46' W 118°13'2 1.5
2015-May-15 21:33N 33°44' W 118°13'2 1.1
2015-May-15 19:17N 33°44' W 118°16'2 1.2
2015-May-15 17:29N 33°43' W 118°13'6 6.8
2015-May-15 16:33N 33°44' W 118°06'1 0.5
2015-May-15 14:25N 33°44' W 118°07'8 4.0
2015-May-15 12:33N 33°44' W 118°16'2 1.7
2015-May-15 11:33N 33°45' W 118°16'2 1.2
2015-May-15 09:30N 33°44' W 118°13'1 1.1
2015-May-15 08:33N 33°45' W 118°13'2 2.1
2015-May-15 07:33N 33°44' W 118°12'3 1.0
2015-May-15 04:08N 33°44' W 118°16'2 4.3
2015-May-15 03:33N 33°44' W 118°13'  
Track history (hours):
 
Tides and Currents Weather Stations Pressure Air Temp Water Temp Dewpoint Dewpoint Depression Visibility Wind Speed Wind Dir Waves Ship Positions

John Quigg

Owner: Harley Marine Services, Inc, Seattle, WA. More information available from US FCC via Universal Licensing System and Coast Guard Vessel Documentation Center.

Last reported at 2015-May-25 03:07 UTC. Time now 2015-May-25 05:31 UTC.
Position N 33°44' W 118°15'.

MMSI: 365934954.

Date/timePositionNaut miles runAvg speedWind from/ knotsBaromVisibWave heightAir tempDewpointWater temp
2015-May-25 03:07N 33°44' W 118°15'2 1.9
2015-May-25 02:13N 33°46' W 118°16'4 0.8
2015-May-24 21:32N 33°44' W 118°12'3 0.4
2015-May-24 14:07N 33°46' W 118°13'2 0.2
2015-May-24 03:07N 33°44' W 118°12'0 0.3
2015-May-24 02:32N 33°44' W 118°12'2 1.7
2015-May-24 01:32N 33°46' W 118°13'1 0.6
2015-May-24 00:33N 33°45' W 118°13'0 0.3
2015-May-23 23:32N 33°45' W 118°13'0 0.0
2015-May-23 22:33N 33°45' W 118°13'0 0.0
2015-May-23 21:33N 33°45' W 118°13'1 1.2
2015-May-23 20:34N 33°46' W 118°13'0 0.2
2015-May-23 19:34N 33°46' W 118°13'3 0.8
2015-May-23 16:16N 33°45' W 118°16'3 1.0
2015-May-23 13:33N 33°45' W 118°13'2 1.5
2015-May-23 12:21N 33°44' W 118°11'3 0.4
2015-May-23 06:27N 33°45' W 118°14'2 2.1
2015-May-23 05:33N 33°44' W 118°12'2 0.4
2015-May-23 00:34N 33°46' W 118°13'0 0.1
2015-May-22 23:33N 33°46' W 118°13'2 1.7
2015-May-22 22:33N 33°44' W 118°13'1 0.8
2015-May-22 21:31N 33°44' W 118°12'3 0.4
2015-May-22 14:22N 33°46' W 118°13'1 0.8
2015-May-22 12:30N 33°45' W 118°13'0 0.1
2015-May-22 10:29N 33°45' W 118°13'0 0.0
2015-May-22 01:31N 33°45' W 118°13'3 1.0
2015-May-21 22:34N 33°46' W 118°17'2 0.4
2015-May-21 16:16N 33°44' W 118°16'3 3.8
2015-May-21 15:34N 33°46' W 118°14'1 0.5
2015-May-21 14:23N 33°46' W 118°13'1 0.1
2015-May-21 10:05N 33°46' W 118°14'2 0.1
2015-May-20 22:05N 33°45' W 118°12'2 0.9
2015-May-20 19:31N 33°44' W 118°10'4 3.6
2015-May-20 18:32N 33°46' W 118°13'1 0.2
2015-May-20 13:33N 33°46' W 118°14'1 0.1
2015-May-20 03:32N 33°45' W 118°14'1 0.4
2015-May-20 01:33N 33°44' W 118°14'0 0.2
2015-May-19 23:19N 33°44' W 118°13'1 0.6
2015-May-19 22:31N 33°44' W 118°13'3 1.3
2015-May-19 20:11N 33°45' W 118°16'3 0.2
2015-May-18 23:27N 33°44' W 118°12'0 0.5
2015-May-18 22:33N 33°44' W 118°12'6 5.3
2015-May-18 21:29N 33°44' W 118°06'2 2.2
2015-May-18 20:31N 33°44' W 118°08'6 0.5
2015-May-18 06:28N 33°46' W 118°15'3 1.3
2015-May-18 04:33N 33°45' W 118°12'1 0.4
2015-May-18 01:21N 33°44' W 118°13'3 0.7
2015-May-17 21:32N 33°45' W 118°16'1 0.1
2015-May-17 15:25N 33°45' W 118°16'4 1.1
2015-May-17 11:30N 33°44' W 118°11'2 0.4
2015-May-17 07:29N 33°45' W 118°12'0 0.1
2015-May-16 23:26N 33°45' W 118°13'2 1.7
2015-May-16 22:33N 33°44' W 118°13'1 0.9
2015-May-16 21:31N 33°45' W 118°13'1 0.8
2015-May-16 20:33N 33°45' W 118°13'1 0.4
2015-May-16 16:27N 33°44' W 118°14'1 1.2
2015-May-16 15:33N 33°45' W 118°13'2 2.1
2015-May-16 14:32N 33°46' W 118°15'1 0.3
2015-May-16 10:33N 33°46' W 118°14'1 0.6
2015-May-16 08:15N 33°45' W 118°13'0 0.0
2015-May-16 02:27N 33°45' W 118°13'2 0.7
2015-May-15 23:14N 33°44' W 118°15'3 4.1
2015-May-15 22:34N 33°46' W 118°13'2 1.5
2015-May-15 21:33N 33°44' W 118°13'2 1.1
2015-May-15 19:17N 33°44' W 118°16'2 1.2
2015-May-15 17:29N 33°43' W 118°13'6 6.8
2015-May-15 16:33N 33°44' W 118°06'1 0.5
2015-May-15 14:25N 33°44' W 118°07'8 4.0
2015-May-15 12:33N 33°44' W 118°16'2 1.7
2015-May-15 11:33N 33°45' W 118°16'2 1.2
2015-May-15 09:30N 33°44' W 118°13'1 1.1
2015-May-15 08:33N 33°45' W 118°13'2 2.1
2015-May-15 07:33N 33°44' W 118°12'3 1.0
2015-May-15 04:08N 33°44' W 118°16'2 4.3
2015-May-15 03:33N 33°44' W 118°13'  

Dump ship's entire track history